sensor_id;sensor_type;location;lat;lon;timestamp;temperature;humidity
28520;DHT22;15732;48.534;20.382;2023-02-05T00:01:52;-0.80;99.90
28520;DHT22;15732;48.534;20.382;2023-02-05T00:04:19;-0.80;99.90
28520;DHT22;15732;48.534;20.382;2023-02-05T00:06:46;-0.80;99.90
28520;DHT22;15732;48.534;20.382;2023-02-05T00:09:13;-0.70;99.90
28520;DHT22;15732;48.534;20.382;2023-02-05T00:11:41;-0.90;99.90
28520;DHT22;15732;48.534;20.382;2023-02-05T00:14:08;-0.90;99.90
28520;DHT22;15732;48.534;20.382;2023-02-05T00:16:36;-1.00;99.90
28520;DHT22;15732;48.534;20.382;2023-02-05T00:19:04;-1.00;99.90
28520;DHT22;15732;48.534;20.382;2023-02-05T00:21:35;-1.00;99.90
28520;DHT22;15732;48.534;20.382;2023-02-05T00:24:03;-1.00;99.90
28520;DHT22;15732;48.534;20.382;2023-02-05T00:26:30;-1.00;99.90
28520;DHT22;15732;48.534;20.382;2023-02-05T00:28:57;-1.00;99.90
28520;DHT22;15732;48.534;20.382;2023-02-05T00:31:25;-0.90;99.90
28520;DHT22;15732;48.534;20.382;2023-02-05T00:33:53;-0.90;99.90
28520;DHT22;15732;48.534;20.382;2023-02-05T00:36:24;-0.80;99.90
28520;DHT22;15732;48.534;20.382;2023-02-05T00:38:51;-0.80;99.90
28520;DHT22;15732;48.534;20.382;2023-02-05T00:41:19;-0.70;99.90
28520;DHT22;15732;48.534;20.382;2023-02-05T00:43:46;-0.70;99.90
28520;DHT22;15732;48.534;20.382;2023-02-05T00:46:13;-0.60;99.90
28520;DHT22;15732;48.534;20.382;2023-02-05T00:48:40;-0.50;99.90
28520;DHT22;15732;48.534;20.382;2023-02-05T00:51:08;-0.50;99.90
28520;DHT22;15732;48.534;20.382;2023-02-05T00:53:35;-0.60;99.90
28520;DHT22;15732;48.534;20.382;2023-02-05T00:56:03;-0.60;99.90
28520;DHT22;15732;48.534;20.382;2023-02-05T00:58:31;-0.60;99.90
28520;DHT22;15732;48.534;20.382;2023-02-05T01:00:58;-0.70;99.90
28520;DHT22;15732;48.534;20.382;2023-02-05T01:03:26;-0.80;99.90
28520;DHT22;15732;48.534;20.382;2023-02-05T01:05:53;-0.80;99.90
28520;DHT22;15732;48.534;20.382;2023-02-05T01:08:20;-0.90;99.90
28520;DHT22;15732;48.534;20.382;2023-02-05T01:10:48;-0.90;99.90
28520;DHT22;15732;48.534;20.382;2023-02-05T01:13:17;-0.80;99.90
28520;DHT22;15732;48.534;20.382;2023-02-05T01:15:45;-0.80;99.90
28520;DHT22;15732;48.534;20.382;2023-02-05T01:18:12;-0.70;99.90
28520;DHT22;15732;48.534;20.382;2023-02-05T01:20:40;-0.70;99.90
28520;DHT22;15732;48.534;20.382;2023-02-05T01:23:08;-0.70;99.90
28520;DHT22;15732;48.534;20.382;2023-02-05T01:25:36;-0.70;99.90
28520;DHT22;15732;48.534;20.382;2023-02-05T01:28:03;-0.70;99.90
28520;DHT22;15732;48.534;20.382;2023-02-05T01:30:31;-0.60;99.90
28520;DHT22;15732;48.534;20.382;2023-02-05T01:32:58;-0.60;99.90
28520;DHT22;15732;48.534;20.382;2023-02-05T01:35:30;-0.80;99.90
28520;DHT22;15732;48.534;20.382;2023-02-05T01:37:57;-0.80;99.90
28520;DHT22;15732;48.534;20.382;2023-02-05T01:40:23;-1.00;99.90
28520;DHT22;15732;48.534;20.382;2023-02-05T01:42:50;-1.00;99.90
28520;DHT22;15732;48.534;20.382;2023-02-05T01:50:30;-0.90;99.90
28520;DHT22;15732;48.534;20.382;2023-02-05T01:53:10;-0.90;99.90
28520;DHT22;15732;48.534;20.382;2023-02-05T01:55:53;-0.80;99.90
28520;DHT22;15732;48.534;20.382;2023-02-05T01:58:21;-0.80;99.90
28520;DHT22;15732;48.534;20.382;2023-02-05T02:00:50;-0.80;99.90
28520;DHT22;15732;48.534;20.382;2023-02-05T02:03:18;-0.80;99.90
28520;DHT22;15732;48.534;20.382;2023-02-05T02:05:45;-0.80;99.90
28520;DHT22;15732;48.534;20.382;2023-02-05T02:08:12;-0.80;99.90
28520;DHT22;15732;48.534;20.382;2023-02-05T02:10:43;-0.80;99.90
28520;DHT22;15732;48.534;20.382;2023-02-05T02:13:17;-0.80;99.90
28520;DHT22;15732;48.534;20.382;2023-02-05T02:15:46;-0.90;99.90
28520;DHT22;15732;48.534;20.382;2023-02-05T02:18:19;-0.90;99.90
28520;DHT22;15732;48.534;20.382;2023-02-05T02:23:58;-0.80;99.90
28520;DHT22;15732;48.534;20.382;2023-02-05T02:26:52;-0.80;99.90
28520;DHT22;15732;48.534;20.382;2023-02-05T02:32:17;-0.80;99.90
28520;DHT22;15732;48.534;20.382;2023-02-05T02:34:56;-0.80;99.90
28520;DHT22;15732;48.534;20.382;2023-02-05T02:37:30;-0.90;99.90
28520;DHT22;15732;48.534;20.382;2023-02-05T02:43:10;-1.10;99.90
28520;DHT22;15732;48.534;20.382;2023-02-05T02:45:45;-1.10;99.90
28520;DHT22;15732;48.534;20.382;2023-02-05T02:48:17;-1.10;99.90
28520;DHT22;15732;48.534;20.382;2023-02-05T02:50:48;-0.90;99.90
28520;DHT22;15732;48.534;20.382;2023-02-05T02:53:19;-0.90;99.90
28520;DHT22;15732;48.534;20.382;2023-02-05T02:55:49;-0.90;99.90
28520;DHT22;15732;48.534;20.382;2023-02-05T02:58:22;-0.90;99.90
28520;DHT22;15732;48.534;20.382;2023-02-05T03:00:50;-0.90;99.90
28520;DHT22;15732;48.534;20.382;2023-02-05T03:03:21;-0.90;99.90
28520;DHT22;15732;48.534;20.382;2023-02-05T03:05:51;-0.90;99.90
28520;DHT22;15732;48.534;20.382;2023-02-05T03:08:24;-1.00;99.90
28520;DHT22;15732;48.534;20.382;2023-02-05T03:11:01;-1.00;99.90
28520;DHT22;15732;48.534;20.382;2023-02-05T03:13:30;-1.00;99.90
28520;DHT22;15732;48.534;20.382;2023-02-05T03:15:58;-1.00;99.90
28520;DHT22;15732;48.534;20.382;2023-02-05T03:18:25;-0.90;99.90
28520;DHT22;15732;48.534;20.382;2023-02-05T03:20:56;-1.00;99.90
28520;DHT22;15732;48.534;20.382;2023-02-05T03:23:26;-1.00;99.90
28520;DHT22;15732;48.534;20.382;2023-02-05T03:25:57;-0.90;99.90
28520;DHT22;15732;48.534;20.382;2023-02-05T03:28:25;-0.90;99.90
28520;DHT22;15732;48.534;20.382;2023-02-05T03:34:11;-0.90;99.90
28520;DHT22;15732;48.534;20.382;2023-02-05T03:37:13;-0.90;99.90
28520;DHT22;15732;48.534;20.382;2023-02-05T03:40:16;-0.90;99.90
28520;DHT22;15732;48.534;20.382;2023-02-05T03:51:25;-0.80;99.90
28520;DHT22;15732;48.534;20.382;2023-02-05T03:59:14;-0.80;99.90
28520;DHT22;15732;48.534;20.382;2023-02-05T04:01:44;-0.80;99.90
28520;DHT22;15732;48.534;20.382;2023-02-05T04:04:12;-0.80;99.90
28520;DHT22;15732;48.534;20.382;2023-02-05T04:06:39;-0.70;99.90
28520;DHT22;15732;48.534;20.382;2023-02-05T04:09:06;-0.90;99.90
28520;DHT22;15732;48.534;20.382;2023-02-05T04:11:35;-0.80;99.90
28520;DHT22;15732;48.534;20.382;2023-02-05T04:14:03;-0.80;99.90
28520;DHT22;15732;48.534;20.382;2023-02-05T04:16:31;-0.80;99.90
28520;DHT22;15732;48.534;20.382;2023-02-05T04:18:58;-0.70;99.90
28520;DHT22;15732;48.534;20.382;2023-02-05T04:21:26;-0.70;99.90
28520;DHT22;15732;48.534;20.382;2023-02-05T04:23:54;-0.80;99.90
28520;DHT22;15732;48.534;20.382;2023-02-05T04:26:21;-0.80;99.90
28520;DHT22;15732;48.534;20.382;2023-02-05T04:28:48;-1.00;99.90
28520;DHT22;15732;48.534;20.382;2023-02-05T04:31:16;-0.90;99.90
28520;DHT22;15732;48.534;20.382;2023-02-05T04:33:43;-0.90;99.90
28520;DHT22;15732;48.534;20.382;2023-02-05T04:36:11;-0.80;99.90
28520;DHT22;15732;48.534;20.382;2023-02-05T04:38:38;-0.90;99.90
28520;DHT22;15732;48.534;20.382;2023-02-05T04:41:06;-0.80;99.90
28520;DHT22;15732;48.534;20.382;2023-02-05T04:43:34;-1.10;99.90
28520;DHT22;15732;48.534;20.382;2023-02-05T04:46:09;-1.00;99.90
28520;DHT22;15732;48.534;20.382;2023-02-05T04:48:37;-1.00;99.90
28520;DHT22;15732;48.534;20.382;2023-02-05T04:51:09;-0.90;99.90
28520;DHT22;15732;48.534;20.382;2023-02-05T04:53:37;-1.00;99.90
28520;DHT22;15732;48.534;20.382;2023-02-05T04:56:23;-1.00;99.90
28520;DHT22;15732;48.534;20.382;2023-02-05T04:58:51;-1.00;99.90
28520;DHT22;15732;48.534;20.382;2023-02-05T05:01:20;-0.90;99.90
28520;DHT22;15732;48.534;20.382;2023-02-05T05:03:52;-0.90;99.90
28520;DHT22;15732;48.534;20.382;2023-02-05T05:06:19;-0.80;99.90
28520;DHT22;15732;48.534;20.382;2023-02-05T05:08:46;-0.80;99.90
28520;DHT22;15732;48.534;20.382;2023-02-05T05:11:16;-0.70;99.90
28520;DHT22;15732;48.534;20.382;2023-02-05T05:13:44;-0.70;99.90
28520;DHT22;15732;48.534;20.382;2023-02-05T05:16:12;-0.60;99.90
28520;DHT22;15732;48.534;20.382;2023-02-05T05:18:39;-0.60;99.90
28520;DHT22;15732;48.534;20.382;2023-02-05T05:21:07;-0.60;99.90
28520;DHT22;15732;48.534;20.382;2023-02-05T05:23:34;-0.50;99.90
28520;DHT22;15732;48.534;20.382;2023-02-05T05:26:07;-0.60;99.90
28520;DHT22;15732;48.534;20.382;2023-02-05T05:28:35;-0.60;99.90
28520;DHT22;15732;48.534;20.382;2023-02-05T05:31:12;-0.50;99.90
28520;DHT22;15732;48.534;20.382;2023-02-05T05:33:39;-0.50;99.90
28520;DHT22;15732;48.534;20.382;2023-02-05T05:36:10;-0.50;99.90
28520;DHT22;15732;48.534;20.382;2023-02-05T05:38:37;-0.60;99.90
28520;DHT22;15732;48.534;20.382;2023-02-05T05:41:05;-0.70;99.90
28520;DHT22;15732;48.534;20.382;2023-02-05T05:43:51;-0.80;99.90
28520;DHT22;15732;48.534;20.382;2023-02-05T05:46:21;-0.80;99.90
28520;DHT22;15732;48.534;20.382;2023-02-05T05:48:54;-0.80;99.90
28520;DHT22;15732;48.534;20.382;2023-02-05T05:51:22;-0.70;99.90
28520;DHT22;15732;48.534;20.382;2023-02-05T05:53:49;-0.70;99.90
28520;DHT22;15732;48.534;20.382;2023-02-05T05:56:22;-0.70;99.90
28520;DHT22;15732;48.534;20.382;2023-02-05T05:58:53;-0.70;99.90
28520;DHT22;15732;48.534;20.382;2023-02-05T06:01:20;-0.80;99.90
28520;DHT22;15732;48.534;20.382;2023-02-05T06:03:52;-0.70;99.90
28520;DHT22;15732;48.534;20.382;2023-02-05T06:06:19;-0.80;99.90
28520;DHT22;15732;48.534;20.382;2023-02-05T06:08:46;-0.80;99.90
28520;DHT22;15732;48.534;20.382;2023-02-05T06:11:13;-1.00;99.90
28520;DHT22;15732;48.534;20.382;2023-02-05T06:13:41;-1.00;99.90
28520;DHT22;15732;48.534;20.382;2023-02-05T06:16:08;-0.90;99.90
28520;DHT22;15732;48.534;20.382;2023-02-05T06:18:39;-0.90;99.90
28520;DHT22;15732;48.534;20.382;2023-02-05T06:21:06;-0.80;99.90
28520;DHT22;15732;48.534;20.382;2023-02-05T06:23:35;-0.70;99.90
28520;DHT22;15732;48.534;20.382;2023-02-05T06:26:02;-0.70;99.90
28520;DHT22;15732;48.534;20.382;2023-02-05T06:28:29;-0.70;99.90
28520;DHT22;15732;48.534;20.382;2023-02-05T06:30:57;-0.60;99.90
28520;DHT22;15732;48.534;20.382;2023-02-05T06:33:28;-0.60;99.90
28520;DHT22;15732;48.534;20.382;2023-02-05T06:35:55;-0.50;99.90
28520;DHT22;15732;48.534;20.382;2023-02-05T06:38:22;-0.50;99.90
28520;DHT22;15732;48.534;20.382;2023-02-05T06:40:49;-0.40;99.90
28520;DHT22;15732;48.534;20.382;2023-02-05T06:43:16;-0.40;99.90
28520;DHT22;15732;48.534;20.382;2023-02-05T06:45:44;-0.40;99.90
28520;DHT22;15732;48.534;20.382;2023-02-05T06:48:11;-0.40;99.90
28520;DHT22;15732;48.534;20.382;2023-02-05T06:50:38;-0.40;99.90
28520;DHT22;15732;48.534;20.382;2023-02-05T06:53:06;-0.40;99.90
28520;DHT22;15732;48.534;20.382;2023-02-05T06:55:33;-0.30;99.90
28520;DHT22;15732;48.534;20.382;2023-02-05T06:58:01;-0.30;99.90
28520;DHT22;15732;48.534;20.382;2023-02-05T07:00:32;-0.30;99.90
28520;DHT22;15732;48.534;20.382;2023-02-05T07:03:00;-0.30;99.90
28520;DHT22;15732;48.534;20.382;2023-02-05T07:05:27;-0.30;99.90
28520;DHT22;15732;48.534;20.382;2023-02-05T07:07:58;-0.40;99.90
28520;DHT22;15732;48.534;20.382;2023-02-05T07:10:25;-0.40;99.90
28520;DHT22;15732;48.534;20.382;2023-02-05T07:12:53;-0.40;99.90
28520;DHT22;15732;48.534;20.382;2023-02-05T07:15:20;-0.40;99.90
28520;DHT22;15732;48.534;20.382;2023-02-05T07:17:48;-0.40;99.90
28520;DHT22;15732;48.534;20.382;2023-02-05T07:20:16;-0.40;99.90
28520;DHT22;15732;48.534;20.382;2023-02-05T07:22:44;-0.40;99.90
28520;DHT22;15732;48.534;20.382;2023-02-05T07:25:12;-0.40;99.90
28520;DHT22;15732;48.534;20.382;2023-02-05T07:27:40;-0.30;99.90
28520;DHT22;15732;48.534;20.382;2023-02-05T07:30:13;-0.30;99.90
28520;DHT22;15732;48.534;20.382;2023-02-05T07:32:41;-0.30;99.90
28520;DHT22;15732;48.534;20.382;2023-02-05T07:35:09;-0.30;99.90
28520;DHT22;15732;48.534;20.382;2023-02-05T07:37:40;-0.30;99.90
28520;DHT22;15732;48.534;20.382;2023-02-05T07:40:07;-0.20;99.90
28520;DHT22;15732;48.534;20.382;2023-02-05T07:42:36;-0.20;99.90
28520;DHT22;15732;48.534;20.382;2023-02-05T07:45:04;-0.20;99.90
28520;DHT22;15732;48.534;20.382;2023-02-05T07:47:33;-0.10;99.90
28520;DHT22;15732;48.534;20.382;2023-02-05T07:50:00;0.00;99.90
28520;DHT22;15732;48.534;20.382;2023-02-05T07:52:27;0.00;99.90
28520;DHT22;15732;48.534;20.382;2023-02-05T07:54:55;0.00;99.90
28520;DHT22;15732;48.534;20.382;2023-02-05T07:57:22;0.00;99.90
28520;DHT22;15732;48.534;20.382;2023-02-05T07:59:51;0.10;99.90
28520;DHT22;15732;48.534;20.382;2023-02-05T08:02:23;0.20;99.90
28520;DHT22;15732;48.534;20.382;2023-02-05T08:04:50;0.20;99.90
28520;DHT22;15732;48.534;20.382;2023-02-05T08:07:17;0.30;99.90
28520;DHT22;15732;48.534;20.382;2023-02-05T08:09:45;0.30;99.90
28520;DHT22;15732;48.534;20.382;2023-02-05T08:12:12;0.10;99.90
28520;DHT22;15732;48.534;20.382;2023-02-05T08:14:40;0.20;99.90
28520;DHT22;15732;48.534;20.382;2023-02-05T08:17:07;0.30;99.90
28520;DHT22;15732;48.534;20.382;2023-02-05T08:19:35;0.40;99.90
28520;DHT22;15732;48.534;20.382;2023-02-05T08:22:02;0.40;99.90
28520;DHT22;15732;48.534;20.382;2023-02-05T08:24:30;0.50;99.90
28520;DHT22;15732;48.534;20.382;2023-02-05T08:26:58;0.60;99.90
28520;DHT22;15732;48.534;20.382;2023-02-05T08:29:25;0.70;99.90
28520;DHT22;15732;48.534;20.382;2023-02-05T08:31:53;0.60;99.90
28520;DHT22;15732;48.534;20.382;2023-02-05T08:34:20;0.50;99.90
28520;DHT22;15732;48.534;20.382;2023-02-05T08:36:48;0.60;99.90
28520;DHT22;15732;48.534;20.382;2023-02-05T08:39:15;0.80;99.90
28520;DHT22;15732;48.534;20.382;2023-02-05T08:41:43;0.90;99.90
28520;DHT22;15732;48.534;20.382;2023-02-05T08:44:10;0.90;99.90
28520;DHT22;15732;48.534;20.382;2023-02-05T08:46:38;1.00;99.90
28520;DHT22;15732;48.534;20.382;2023-02-05T08:49:05;1.00;99.90
28520;DHT22;15732;48.534;20.382;2023-02-05T08:51:32;1.10;99.90
28520;DHT22;15732;48.534;20.382;2023-02-05T08:54:01;1.20;99.90
28520;DHT22;15732;48.534;20.382;2023-02-05T08:56:29;1.30;99.90
28520;DHT22;15732;48.534;20.382;2023-02-05T08:58:57;1.40;99.90
28520;DHT22;15732;48.534;20.382;2023-02-05T09:01:28;1.40;99.90
28520;DHT22;15732;48.534;20.382;2023-02-05T09:03:59;1.50;99.90
28520;DHT22;15732;48.534;20.382;2023-02-05T09:06:27;1.60;99.90
28520;DHT22;15732;48.534;20.382;2023-02-05T09:08:54;1.50;99.90
28520;DHT22;15732;48.534;20.382;2023-02-05T09:11:22;1.50;99.90
28520;DHT22;15732;48.534;20.382;2023-02-05T09:13:52;1.50;99.90
28520;DHT22;15732;48.534;20.382;2023-02-05T09:16:19;1.60;99.90
28520;DHT22;15732;48.534;20.382;2023-02-05T09:18:47;1.40;99.90
28520;DHT22;15732;48.534;20.382;2023-02-05T09:21:14;1.30;99.90
28520;DHT22;15732;48.534;20.382;2023-02-05T09:23:41;1.10;99.90
28520;DHT22;15732;48.534;20.382;2023-02-05T09:26:08;1.20;99.90
28520;DHT22;15732;48.534;20.382;2023-02-05T09:28:35;1.40;99.90
28520;DHT22;15732;48.534;20.382;2023-02-05T09:31:07;1.30;99.90
28520;DHT22;15732;48.534;20.382;2023-02-05T09:33:34;1.20;99.90
28520;DHT22;15732;48.534;20.382;2023-02-05T09:36:19;1.20;99.90
28520;DHT22;15732;48.534;20.382;2023-02-05T09:38:48;1.10;99.90
28520;DHT22;15732;48.534;20.382;2023-02-05T09:41:31;1.10;99.90
28520;DHT22;15732;48.534;20.382;2023-02-05T09:47:15;1.30;99.90
28520;DHT22;15732;48.534;20.382;2023-02-05T09:49:49;1.30;99.90
28520;DHT22;15732;48.534;20.382;2023-02-05T09:52:22;1.30;99.90
28520;DHT22;15732;48.534;20.382;2023-02-05T09:55:00;1.40;99.90
28520;DHT22;15732;48.534;20.382;2023-02-05T09:57:34;1.30;99.90
28520;DHT22;15732;48.534;20.382;2023-02-05T10:02:52;1.50;99.90
28520;DHT22;15732;48.534;20.382;2023-02-05T10:11:42;1.70;99.90
28520;DHT22;15732;48.534;20.382;2023-02-05T10:23:14;1.60;99.90
28520;DHT22;15732;48.534;20.382;2023-02-05T10:37:10;1.50;99.90
28520;DHT22;15732;48.534;20.382;2023-02-05T10:39:38;1.50;99.90
28520;DHT22;15732;48.534;20.382;2023-02-05T10:48:31;1.20;99.90
28520;DHT22;15732;48.534;20.382;2023-02-05T10:50:57;1.20;99.90
28520;DHT22;15732;48.534;20.382;2023-02-05T10:53:26;1.20;99.90
28520;DHT22;15732;48.534;20.382;2023-02-05T10:55:55;1.20;99.90
28520;DHT22;15732;48.534;20.382;2023-02-05T11:00:52;1.10;99.90
28520;DHT22;15732;48.534;20.382;2023-02-05T11:03:21;1.00;99.90
28520;DHT22;15732;48.534;20.382;2023-02-05T11:05:48;1.10;99.90
28520;DHT22;15732;48.534;20.382;2023-02-05T11:08:41;1.00;99.90
28520;DHT22;15732;48.534;20.382;2023-02-05T11:13:56;1.20;99.90
28520;DHT22;15732;48.534;20.382;2023-02-05T11:16:37;1.20;99.90
28520;DHT22;15732;48.534;20.382;2023-02-05T11:19:17;1.20;99.90
28520;DHT22;15732;48.534;20.382;2023-02-05T11:22:05;1.10;99.90
28520;DHT22;15732;48.534;20.382;2023-02-05T11:24:37;1.20;99.90
28520;DHT22;15732;48.534;20.382;2023-02-05T11:27:27;1.10;99.90
28520;DHT22;15732;48.534;20.382;2023-02-05T11:30:18;1.10;99.90
28520;DHT22;15732;48.534;20.382;2023-02-05T11:32:45;1.00;99.90
28520;DHT22;15732;48.534;20.382;2023-02-05T11:37:43;1.00;99.90
28520;DHT22;15732;48.534;20.382;2023-02-05T11:40:33;1.00;99.90
28520;DHT22;15732;48.534;20.382;2023-02-05T11:43:21;1.00;99.90
28520;DHT22;15732;48.534;20.382;2023-02-05T11:45:50;0.90;99.90
28520;DHT22;15732;48.534;20.382;2023-02-05T11:50:54;0.90;99.90
28520;DHT22;15732;48.534;20.382;2023-02-05T11:53:21;0.80;99.90
28520;DHT22;15732;48.534;20.382;2023-02-05T11:55:58;0.80;99.90
28520;DHT22;15732;48.534;20.382;2023-02-05T11:58:30;0.70;99.90
28520;DHT22;15732;48.534;20.382;2023-02-05T12:01:24;0.70;99.90
28520;DHT22;15732;48.534;20.382;2023-02-05T12:06:44;0.90;99.90
28520;DHT22;15732;48.534;20.382;2023-02-05T12:09:19;0.80;99.90
28520;DHT22;15732;48.534;20.382;2023-02-05T12:17:38;0.90;99.90
28520;DHT22;15732;48.534;20.382;2023-02-05T12:25:19;0.80;99.90
28520;DHT22;15732;48.534;20.382;2023-02-05T12:38:54;0.80;99.90
28520;DHT22;15732;48.534;20.382;2023-02-05T12:44:13;0.50;99.90
28520;DHT22;15732;48.534;20.382;2023-02-05T12:47:05;0.50;99.90
28520;DHT22;15732;48.534;20.382;2023-02-05T12:52:40;0.20;99.90
28520;DHT22;15732;48.534;20.382;2023-02-05T12:55:28;0.20;99.90
28520;DHT22;15732;48.534;20.382;2023-02-05T12:58:02;0.20;99.90
28520;DHT22;15732;48.534;20.382;2023-02-05T13:00:42;0.20;99.90
28520;DHT22;15732;48.534;20.382;2023-02-05T13:03:44;0.30;99.90
28520;DHT22;15732;48.534;20.382;2023-02-05T13:06:34;0.30;99.90
28520;DHT22;15732;48.534;20.382;2023-02-05T13:09:19;0.40;99.90
28520;DHT22;15732;48.534;20.382;2023-02-05T13:12:09;0.40;99.90
28520;DHT22;15732;48.534;20.382;2023-02-05T13:17:14;0.40;99.90
28520;DHT22;15732;48.534;20.382;2023-02-05T13:19:47;0.30;99.90
28520;DHT22;15732;48.534;20.382;2023-02-05T13:22:25;0.10;99.90
28520;DHT22;15732;48.534;20.382;2023-02-05T13:28:30;0.10;99.90
28520;DHT22;15732;48.534;20.382;2023-02-05T13:33:37;0.20;99.90
28520;DHT22;15732;48.534;20.382;2023-02-05T13:53:13;0.00;99.90
28520;DHT22;15732;48.534;20.382;2023-02-05T13:58:59;0.10;99.90
28520;DHT22;15732;48.534;20.382;2023-02-05T14:01:31;0.00;99.90
28520;DHT22;15732;48.534;20.382;2023-02-05T14:04:02;0.00;99.90
28520;DHT22;15732;48.534;20.382;2023-02-05T14:06:38;0.00;99.90
28520;DHT22;15732;48.534;20.382;2023-02-05T14:09:30;0.00;99.90
28520;DHT22;15732;48.534;20.382;2023-02-05T14:12:03;0.00;99.90
28520;DHT22;15732;48.534;20.382;2023-02-05T14:14:37;-0.20;99.90
28520;DHT22;15732;48.534;20.382;2023-02-05T14:19:55;-0.10;99.90
28520;DHT22;15732;48.534;20.382;2023-02-05T14:22:36;-0.10;99.90
28520;DHT22;15732;48.534;20.382;2023-02-05T14:30:46;-0.30;99.90
28520;DHT22;15732;48.534;20.382;2023-02-05T14:33:43;-0.20;99.90
28520;DHT22;15732;48.534;20.382;2023-02-05T14:38:52;-0.10;99.90
28520;DHT22;15732;48.534;20.382;2023-02-05T14:41:24;0.00;99.90
28520;DHT22;15732;48.534;20.382;2023-02-05T14:44:01;-0.20;99.90
28520;DHT22;15732;48.534;20.382;2023-02-05T14:49:38;-0.10;99.90
28520;DHT22;15732;48.534;20.382;2023-02-05T14:54:51;-0.10;99.90
28520;DHT22;15732;48.534;20.382;2023-02-05T14:57:28;-0.10;99.90
28520;DHT22;15732;48.534;20.382;2023-02-05T15:13:42;0.00;99.90
28520;DHT22;15732;48.534;20.382;2023-02-05T15:16:29;0.00;99.90
28520;DHT22;15732;48.534;20.382;2023-02-05T15:19:00;0.10;99.90
28520;DHT22;15732;48.534;20.382;2023-02-05T15:21:42;0.10;99.90
28520;DHT22;15732;48.534;20.382;2023-02-05T15:24:22;0.00;99.90
28520;DHT22;15732;48.534;20.382;2023-02-05T15:26:51;0.10;99.90
28520;DHT22;15732;48.534;20.382;2023-02-05T15:29:33;0.20;99.90
28520;DHT22;15732;48.534;20.382;2023-02-05T15:32:37;0.00;99.90
28520;DHT22;15732;48.534;20.382;2023-02-05T15:35:17;0.10;99.90
28520;DHT22;15732;48.534;20.382;2023-02-05T15:37:54;0.10;99.90
28520;DHT22;15732;48.534;20.382;2023-02-05T15:40:30;0.00;99.90
28520;DHT22;15732;48.534;20.382;2023-02-05T15:43:08;0.00;99.90
28520;DHT22;15732;48.534;20.382;2023-02-05T15:45:36;0.00;99.90
28520;DHT22;15732;48.534;20.382;2023-02-05T15:48:15;0.00;99.90
28520;DHT22;15732;48.534;20.382;2023-02-05T15:50:58;0.00;99.90
28520;DHT22;15732;48.534;20.382;2023-02-05T15:53:32;-0.20;99.90
28520;DHT22;15732;48.534;20.382;2023-02-05T15:58:33;-0.30;99.90
28520;DHT22;15732;48.534;20.382;2023-02-05T16:01:00;-0.40;99.90
28520;DHT22;15732;48.534;20.382;2023-02-05T16:03:34;-0.40;99.90
28520;DHT22;15732;48.534;20.382;2023-02-05T16:06:01;-0.50;99.90
28520;DHT22;15732;48.534;20.382;2023-02-05T16:08:28;-0.50;99.90
28520;DHT22;15732;48.534;20.382;2023-02-05T16:10:57;-0.40;99.90
28520;DHT22;15732;48.534;20.382;2023-02-05T16:13:27;-0.40;99.90
28520;DHT22;15732;48.534;20.382;2023-02-05T16:16:08;-0.60;99.90
28520;DHT22;15732;48.534;20.382;2023-02-05T16:19:08;-0.70;99.90
28520;DHT22;15732;48.534;20.382;2023-02-05T16:21:45;-0.70;99.90
28520;DHT22;15732;48.534;20.382;2023-02-05T16:24:35;-0.60;99.90
28520;DHT22;15732;48.534;20.382;2023-02-05T16:27:28;-0.80;99.90
28520;DHT22;15732;48.534;20.382;2023-02-05T16:29:59;-0.60;99.90
28520;DHT22;15732;48.534;20.382;2023-02-05T16:33:05;-0.60;99.90
28520;DHT22;15732;48.534;20.382;2023-02-05T16:36:14;-0.80;99.90
28520;DHT22;15732;48.534;20.382;2023-02-05T16:39:00;-1.20;99.90
28520;DHT22;15732;48.534;20.382;2023-02-05T16:42:01;-1.20;99.90
28520;DHT22;15732;48.534;20.382;2023-02-05T16:51:01;-1.40;99.90
28520;DHT22;15732;48.534;20.382;2023-02-05T16:53:49;-1.40;99.90
28520;DHT22;15732;48.534;20.382;2023-02-05T16:56:38;-1.40;99.90
28520;DHT22;15732;48.534;20.382;2023-02-05T17:02:31;-1.50;99.90
28520;DHT22;15732;48.534;20.382;2023-02-05T17:05:05;-1.40;99.90
28520;DHT22;15732;48.534;20.382;2023-02-05T17:08:11;-1.40;99.90
28520;DHT22;15732;48.534;20.382;2023-02-05T17:11:01;-1.30;99.90
28520;DHT22;15732;48.534;20.382;2023-02-05T17:14:11;-1.40;99.90
28520;DHT22;15732;48.534;20.382;2023-02-05T17:16:46;-1.30;99.90
28520;DHT22;15732;48.534;20.382;2023-02-05T17:25:24;-1.40;99.90
28520;DHT22;15732;48.534;20.382;2023-02-05T17:28:14;-1.40;99.90
28520;DHT22;15732;48.534;20.382;2023-02-05T17:30:43;-1.60;99.90
28520;DHT22;15732;48.534;20.382;2023-02-05T17:33:36;-1.60;99.90
28520;DHT22;15732;48.534;20.382;2023-02-05T17:36:13;-1.60;99.90
28520;DHT22;15732;48.534;20.382;2023-02-05T17:38:40;-1.70;99.90
28520;DHT22;15732;48.534;20.382;2023-02-05T17:41:14;-1.70;99.90
28520;DHT22;15732;48.534;20.382;2023-02-05T17:43:59;-1.70;99.90
28520;DHT22;15732;48.534;20.382;2023-02-05T17:46:27;-1.70;99.90
28520;DHT22;15732;48.534;20.382;2023-02-05T17:48:54;-1.70;99.90
28520;DHT22;15732;48.534;20.382;2023-02-05T17:51:22;-1.70;99.90
28520;DHT22;15732;48.534;20.382;2023-02-05T17:53:50;-1.80;99.90
28520;DHT22;15732;48.534;20.382;2023-02-05T17:56:21;-1.80;99.90
28520;DHT22;15732;48.534;20.382;2023-02-05T17:58:49;-1.80;99.90
28520;DHT22;15732;48.534;20.382;2023-02-05T18:01:18;-1.90;99.90
28520;DHT22;15732;48.534;20.382;2023-02-05T18:03:45;-1.90;99.90
28520;DHT22;15732;48.534;20.382;2023-02-05T18:06:17;-2.00;99.90
28520;DHT22;15732;48.534;20.382;2023-02-05T18:08:48;-2.10;99.90
28520;DHT22;15732;48.534;20.382;2023-02-05T18:11:16;-2.10;99.90
28520;DHT22;15732;48.534;20.382;2023-02-05T18:13:43;-2.10;99.90
28520;DHT22;15732;48.534;20.382;2023-02-05T18:16:10;-2.20;99.90
28520;DHT22;15732;48.534;20.382;2023-02-05T18:18:38;-2.20;99.90
28520;DHT22;15732;48.534;20.382;2023-02-05T18:21:08;-2.20;99.90
28520;DHT22;15732;48.534;20.382;2023-02-05T18:23:35;-2.20;99.90
28520;DHT22;15732;48.534;20.382;2023-02-05T18:26:04;-2.20;99.90
28520;DHT22;15732;48.534;20.382;2023-02-05T18:28:32;-2.20;99.90
28520;DHT22;15732;48.534;20.382;2023-02-05T18:31:04;-2.20;99.90
28520;DHT22;15732;48.534;20.382;2023-02-05T18:33:32;-2.30;99.90
28520;DHT22;15732;48.534;20.382;2023-02-05T18:36:10;-2.30;99.90
28520;DHT22;15732;48.534;20.382;2023-02-05T18:38:39;-2.30;99.90
28520;DHT22;15732;48.534;20.382;2023-02-05T18:41:14;-2.30;99.90
28520;DHT22;15732;48.534;20.382;2023-02-05T18:43:42;-2.20;99.90
28520;DHT22;15732;48.534;20.382;2023-02-05T18:46:16;-2.30;99.90
28520;DHT22;15732;48.534;20.382;2023-02-05T18:48:48;-2.20;99.90
28520;DHT22;15732;48.534;20.382;2023-02-05T18:51:35;-2.20;99.90
28520;DHT22;15732;48.534;20.382;2023-02-05T18:54:03;-2.10;99.90
28520;DHT22;15732;48.534;20.382;2023-02-05T18:56:33;-2.10;99.90
28520;DHT22;15732;48.534;20.382;2023-02-05T18:59:02;-2.00;99.90
28520;DHT22;15732;48.534;20.382;2023-02-05T19:01:33;-1.90;99.90